createdAt,value
2022-09-14T00:01:23.641Z,18.00
2022-09-14T00:03:53.634Z,18.00
2022-09-14T00:06:22.581Z,18.00
2022-09-14T00:08:52.682Z,18.00
2022-09-14T00:11:22.657Z,18.00
2022-09-14T00:13:51.701Z,18.00
2022-09-14T00:16:21.886Z,18.00
2022-09-14T00:18:53.977Z,18.00
2022-09-14T00:21:22.960Z,18.00
2022-09-14T00:23:51.029Z,18.00
2022-09-14T00:26:21.290Z,18.00
2022-09-14T00:28:51.441Z,17.90
2022-09-14T00:31:21.022Z,17.90
2022-09-14T00:33:51.118Z,17.90
2022-09-14T00:36:22.307Z,17.90
2022-09-14T00:38:50.658Z,17.90
2022-09-14T00:41:21.452Z,17.80
2022-09-14T00:43:58.659Z,17.80
2022-09-14T00:46:28.345Z,17.80
2022-09-14T00:49:00.055Z,17.80
2022-09-14T00:51:33.031Z,17.80
2022-09-14T00:54:03.125Z,17.80
2022-09-14T00:56:31.546Z,17.80
2022-09-14T00:59:02.035Z,17.80
2022-09-14T01:01:30.339Z,17.80
2022-09-14T01:03:58.366Z,17.80
2022-09-14T01:06:37.389Z,17.70
2022-09-14T01:09:19.378Z,17.70
2022-09-14T01:11:58.751Z,17.60
2022-09-14T01:14:31.967Z,17.60
2022-09-14T01:17:07.556Z,17.60
2022-09-14T01:19:55.876Z,17.60
2022-09-14T01:22:33.595Z,17.60
2022-09-14T01:25:15.142Z,17.60
2022-09-14T01:27:45.973Z,17.60
2022-09-14T01:30:19.141Z,17.60
2022-09-14T01:32:52.213Z,17.60
2022-09-14T01:35:27.310Z,17.60
2022-09-14T01:37:59.692Z,17.50
2022-09-14T01:40:32.473Z,17.50
2022-09-14T01:43:05.301Z,17.50
2022-09-14T01:45:34.923Z,17.50
2022-09-14T01:48:06.051Z,17.50
2022-09-14T01:50:38.723Z,17.50
2022-09-14T01:53:10.915Z,17.50
2022-09-14T01:55:44.790Z,17.50
2022-09-14T01:58:17.953Z,17.60
2022-09-14T02:00:47.488Z,17.60
2022-09-14T02:03:20.820Z,17.60
2022-09-14T02:05:56.722Z,17.60
2022-09-14T02:08:27.577Z,17.60
2022-09-14T02:10:55.958Z,17.60
2022-09-14T02:13:26.349Z,17.60
2022-09-14T02:15:54.693Z,17.60
2022-09-14T02:18:23.518Z,17.60
2022-09-14T02:20:55.934Z,17.60
2022-09-14T02:23:24.287Z,17.60
2022-09-14T02:25:52.386Z,17.60
2022-09-14T02:28:20.435Z,17.60
2022-09-14T02:31:03.115Z,17.60
2022-09-14T02:33:37.394Z,17.60
2022-09-14T02:36:08.497Z,17.60
2022-09-14T02:38:42.478Z,17.50
2022-09-14T02:41:17.784Z,17.50
2022-09-14T02:43:55.086Z,17.50
2022-09-14T02:46:33.172Z,17.40
2022-09-14T02:49:08.339Z,17.40
2022-09-14T02:51:42.991Z,17.40
2022-09-14T02:54:17.131Z,17.40
2022-09-14T02:56:45.903Z,17.50
2022-09-14T02:59:14.103Z,17.40
2022-09-14T03:01:43.588Z,17.40
2022-09-14T03:04:11.888Z,17.40
2022-09-14T03:06:39.892Z,17.40
2022-09-14T03:09:07.891Z,17.40
2022-09-14T03:11:36.041Z,17.40
2022-09-14T03:14:04.173Z,17.40
2022-09-14T03:16:32.214Z,17.40
2022-09-14T03:19:01.862Z,17.40
2022-09-14T03:21:29.951Z,17.40
2022-09-14T03:23:58.339Z,17.40
2022-09-14T03:26:29.055Z,17.40
2022-09-14T03:28:58.613Z,17.40
2022-09-14T03:31:27.583Z,17.40
2022-09-14T03:33:57.202Z,17.40
2022-09-14T03:36:28.333Z,17.40
2022-09-14T03:38:58.564Z,17.40
2022-09-14T03:41:27.030Z,17.30
2022-09-14T03:43:55.047Z,17.30
2022-09-14T03:46:24.700Z,17.30
2022-09-14T03:48:53.209Z,17.30
2022-09-14T03:51:21.242Z,17.30
2022-09-14T03:53:50.922Z,17.30
2022-09-14T03:56:21.924Z,17.30
2022-09-14T03:58:50.867Z,17.30
2022-09-14T04:01:22.066Z,17.30
2022-09-14T04:03:51.276Z,17.30
2022-09-14T04:06:20.219Z,17.30
2022-09-14T04:08:49.919Z,17.30
2022-09-14T04:11:20.642Z,17.30
2022-09-14T04:13:49.468Z,17.30
2022-09-14T04:16:20.565Z,17.30
2022-09-14T04:18:49.775Z,17.30
2022-09-14T04:21:40.219Z,17.30
2022-09-14T04:24:15.575Z,17.30
2022-09-14T04:26:44.532Z,17.20
2022-09-14T04:29:14.607Z,17.20
2022-09-14T04:31:42.830Z,17.20
2022-09-14T04:34:13.022Z,17.20
2022-09-14T04:36:41.091Z,17.20
2022-09-14T04:39:13.814Z,17.20
2022-09-14T04:41:42.108Z,17.20
2022-09-14T04:44:10.281Z,17.10
2022-09-14T04:46:43.529Z,17.10
2022-09-14T04:49:14.242Z,17.20
2022-09-14T04:51:42.373Z,17.10
2022-09-14T04:54:15.864Z,17.10
2022-09-14T04:56:44.413Z,17.10
2022-09-14T04:59:12.678Z,17.10
2022-09-14T05:01:44.238Z,17.10
2022-09-14T05:04:13.215Z,17.10
2022-09-14T05:06:42.683Z,17.10
2022-09-14T05:09:15.297Z,17.00
2022-09-14T05:11:43.985Z,17.00
2022-09-14T05:14:13.903Z,17.00
2022-09-14T05:16:43.124Z,17.00
2022-09-14T05:19:14.926Z,17.00
2022-09-14T05:21:43.147Z,17.00
2022-09-14T05:24:16.150Z,17.00
2022-09-14T05:26:45.652Z,17.00
2022-09-14T05:29:15.537Z,17.00
2022-09-14T05:31:44.668Z,17.00
2022-09-14T05:34:13.490Z,16.90
2022-09-14T05:36:42.228Z,17.00
2022-09-14T05:39:10.815Z,16.90
2022-09-14T05:41:40.317Z,17.00
2022-09-14T05:44:08.710Z,17.00
2022-09-14T05:46:36.989Z,16.90
2022-09-14T05:49:05.169Z,16.90
2022-09-14T05:51:33.335Z,17.00
2022-09-14T05:54:01.798Z,16.90
2022-09-14T05:56:31.752Z,17.00
2022-09-14T05:59:01.448Z,16.90
2022-09-14T06:01:32.945Z,16.90
2022-09-14T06:04:03.249Z,17.00
2022-09-14T06:06:33.076Z,17.00
2022-09-14T06:09:01.996Z,17.00
2022-09-14T06:11:32.750Z,17.00
2022-09-14T06:14:03.023Z,17.00
2022-09-14T06:16:31.293Z,17.00
2022-09-14T06:19:00.743Z,17.00
2022-09-14T06:21:31.728Z,17.00
2022-09-14T06:24:00.295Z,17.10
2022-09-14T06:26:28.501Z,17.10
2022-09-14T06:28:56.639Z,17.10
2022-09-14T06:31:26.366Z,17.10
2022-09-14T06:33:55.170Z,17.10
2022-09-14T06:36:25.070Z,17.10
2022-09-14T06:38:54.580Z,17.20
2022-09-14T06:41:26.500Z,17.20
2022-09-14T06:43:57.017Z,17.20
2022-09-14T06:46:28.432Z,17.30
2022-09-14T06:48:59.337Z,17.30
2022-09-14T06:51:29.887Z,17.30
2022-09-14T06:54:00.216Z,17.30
2022-09-14T06:56:29.357Z,17.30
2022-09-14T06:58:58.428Z,17.40
2022-09-14T07:01:29.960Z,17.40
2022-09-14T07:03:58.477Z,17.40
2022-09-14T07:06:28.555Z,17.50
2022-09-14T07:08:57.138Z,17.50
2022-09-14T07:11:27.896Z,17.50
2022-09-14T07:13:58.794Z,17.60
2022-09-14T07:16:28.998Z,17.60
2022-09-14T07:18:58.269Z,17.70
2022-09-14T07:21:27.485Z,17.70
2022-09-14T07:23:56.369Z,17.80
2022-09-14T07:26:26.169Z,17.80
2022-09-14T07:28:56.281Z,17.80
2022-09-14T07:31:26.544Z,17.90
2022-09-14T07:33:57.442Z,17.90
2022-09-14T07:36:29.490Z,17.90
2022-09-14T07:39:00.830Z,17.80
2022-09-14T07:41:30.729Z,17.80
2022-09-14T07:44:01.546Z,17.90
2022-09-14T07:46:33.023Z,17.90
2022-09-14T07:49:03.755Z,17.90
2022-09-14T07:51:33.270Z,17.90
2022-09-14T07:54:01.830Z,17.90
2022-09-14T07:56:29.969Z,17.90
2022-09-14T07:59:17.609Z,17.90
2022-09-14T08:01:49.718Z,17.90
2022-09-14T08:04:19.326Z,17.80
2022-09-14T08:06:47.268Z,17.90
2022-09-14T08:09:15.669Z,17.90
2022-09-14T08:11:43.853Z,17.90
2022-09-14T08:14:14.270Z,17.90
2022-09-14T08:16:42.974Z,17.90
2022-09-14T08:19:16.566Z,17.90
2022-09-14T08:21:47.682Z,18.00
2022-09-14T08:24:18.008Z,18.00
2022-09-14T08:26:46.542Z,18.00
2022-09-14T08:29:15.047Z,18.00
2022-09-14T08:31:45.631Z,18.10
2022-09-14T08:34:14.913Z,18.00
2022-09-14T08:36:45.655Z,18.10
2022-09-14T08:39:15.775Z,18.10
2022-09-14T08:41:51.897Z,18.10
2022-09-14T08:44:24.565Z,18.20
2022-09-14T08:46:59.168Z,18.20
2022-09-14T08:49:39.063Z,18.20
2022-09-14T08:52:19.873Z,18.20
2022-09-14T08:54:53.748Z,18.30
2022-09-14T08:57:28.636Z,18.20
2022-09-14T09:00:08.282Z,18.20
2022-09-14T09:03:09.289Z,18.30
2022-09-14T09:05:41.537Z,18.30
2022-09-14T09:08:22.572Z,18.20
2022-09-14T09:10:53.716Z,18.30
2022-09-14T09:13:25.652Z,18.30
2022-09-14T09:15:56.404Z,18.30
2022-09-14T09:18:34.325Z,18.30
2022-09-14T09:21:06.282Z,18.30
2022-09-14T09:23:36.386Z,18.40
2022-09-14T09:26:09.226Z,18.40
2022-09-14T09:28:43.635Z,18.40
2022-09-14T09:31:14.976Z,18.40
2022-09-14T09:33:44.974Z,18.40
2022-09-14T09:36:15.838Z,18.50
2022-09-14T09:38:45.670Z,18.50
2022-09-14T09:41:17.510Z,18.50
2022-09-14T09:44:00.410Z,18.60
2022-09-14T09:46:30.665Z,18.60
2022-09-14T09:48:59.810Z,18.60
2022-09-14T09:51:30.796Z,18.60
2022-09-14T09:54:08.695Z,18.60
2022-09-14T09:56:40.159Z,18.70
2022-09-14T09:59:25.096Z,18.70
2022-09-14T10:01:54.682Z,18.70
2022-09-14T10:04:25.666Z,18.70
2022-09-14T10:06:54.422Z,18.80
2022-09-14T10:09:27.148Z,18.80
2022-09-14T10:12:01.010Z,18.90
2022-09-14T10:14:32.422Z,18.90
2022-09-14T10:17:09.101Z,19.00
2022-09-14T10:19:38.501Z,19.00
2022-09-14T10:22:25.712Z,19.00
2022-09-14T10:25:01.239Z,19.10
2022-09-14T10:27:41.495Z,19.10
2022-09-14T10:30:17.178Z,19.20
2022-09-14T10:32:51.065Z,19.30
2022-09-14T10:35:20.253Z,19.30
2022-09-14T10:38:02.155Z,19.30
2022-09-14T10:40:38.556Z,19.30
2022-09-14T10:43:15.550Z,19.30
2022-09-14T10:45:50.562Z,19.40
2022-09-14T10:48:38.428Z,19.40
2022-09-14T10:51:35.011Z,19.40
2022-09-14T10:54:13.835Z,19.50
2022-09-14T10:56:53.965Z,19.40
2022-09-14T10:59:32.848Z,19.50
2022-09-14T11:02:34.692Z,19.50
2022-09-14T11:05:13.438Z,19.50
2022-09-14T11:07:53.379Z,19.50
2022-09-14T11:10:27.781Z,19.60
2022-09-14T11:13:14.420Z,19.60
2022-09-14T11:15:52.235Z,19.60
2022-09-14T11:18:31.145Z,19.60
2022-09-14T11:21:09.563Z,19.70
2022-09-14T11:23:47.029Z,19.70
2022-09-14T11:26:20.269Z,19.80
2022-09-14T11:28:53.746Z,19.80
2022-09-14T11:31:26.280Z,19.90
2022-09-14T11:34:00.144Z,20.00
2022-09-14T11:36:32.817Z,20.00
2022-09-14T11:39:07.114Z,20.00
2022-09-14T11:41:41.701Z,20.10
2022-09-14T11:44:17.965Z,20.10
2022-09-14T11:46:51.214Z,20.20
2022-09-14T11:49:23.716Z,20.30
2022-09-14T11:51:55.027Z,20.30
2022-09-14T11:54:24.732Z,20.30
2022-09-14T11:56:56.419Z,20.30
2022-09-14T11:59:52.540Z,20.40
2022-09-14T12:03:01.187Z,20.40
2022-09-14T12:05:38.743Z,20.40
2022-09-14T12:08:28.595Z,20.40
2022-09-14T12:11:05.759Z,20.40
2022-09-14T12:13:34.426Z,20.40
2022-09-14T12:16:05.264Z,20.40
2022-09-14T12:18:36.075Z,20.50
2022-09-14T12:21:08.150Z,20.50
2022-09-14T12:23:48.314Z,20.60
2022-09-14T12:26:32.660Z,20.70
2022-09-14T12:29:23.262Z,20.70
2022-09-14T12:32:40.167Z,20.80
2022-09-14T12:35:48.154Z,20.80
2022-09-14T12:38:42.446Z,20.80
2022-09-14T12:41:59.432Z,20.80
2022-09-14T12:44:35.988Z,20.90
2022-09-14T12:47:51.916Z,20.90
2022-09-14T12:50:22.135Z,21.00
2022-09-14T12:53:00.605Z,20.90
2022-09-14T12:55:52.153Z,21.00
2022-09-14T12:58:44.025Z,21.00
2022-09-14T13:01:29.710Z,21.10
2022-09-14T13:03:59.846Z,21.10
2022-09-14T13:06:35.767Z,21.10
2022-09-14T13:09:09.376Z,21.10
2022-09-14T13:11:41.491Z,21.10
2022-09-14T13:14:16.852Z,21.20
2022-09-14T13:16:47.834Z,21.20
2022-09-14T13:19:26.175Z,21.30
2022-09-14T13:21:56.251Z,21.30
2022-09-14T13:24:32.622Z,21.30
2022-09-14T13:27:03.148Z,21.30
2022-09-14T13:29:31.766Z,21.30
2022-09-14T13:32:03.918Z,21.30
2022-09-14T13:34:37.203Z,21.30
2022-09-14T13:37:06.526Z,21.30
2022-09-14T13:39:37.026Z,21.20
2022-09-14T13:42:06.635Z,21.30
2022-09-14T13:44:37.889Z,21.20
2022-09-14T13:47:07.448Z,21.20
2022-09-14T13:49:37.715Z,21.20
2022-09-14T13:52:21.069Z,21.10
2022-09-14T13:54:49.829Z,21.10
2022-09-14T13:57:19.939Z,21.00
2022-09-14T14:00:21.007Z,21.00
2022-09-14T14:02:51.512Z,21.00
2022-09-14T14:05:28.022Z,21.00
2022-09-14T14:07:57.832Z,20.90
2022-09-14T14:10:29.850Z,20.90
2022-09-14T14:12:58.458Z,20.90
2022-09-14T14:15:37.607Z,20.90
2022-09-14T14:18:39.695Z,20.90
2022-09-14T14:21:16.465Z,20.90
2022-09-14T14:24:02.802Z,20.90
2022-09-14T14:26:32.851Z,20.90
2022-09-14T14:29:09.506Z,20.90
2022-09-14T14:31:37.785Z,21.00
2022-09-14T14:34:18.680Z,21.10
2022-09-14T14:36:50.210Z,21.10
2022-09-14T14:39:20.613Z,21.20
2022-09-14T14:41:49.878Z,21.30
2022-09-14T14:44:21.713Z,21.40
2022-09-14T14:46:49.760Z,21.40
2022-09-14T14:49:20.447Z,21.50
2022-09-14T14:51:50.681Z,21.60
2022-09-14T14:54:19.258Z,21.60
2022-09-14T14:56:49.359Z,21.70
2022-09-14T14:59:26.574Z,21.70
2022-09-14T15:01:55.437Z,21.80
2022-09-14T15:04:24.013Z,21.80
2022-09-14T15:06:53.808Z,21.70
2022-09-14T15:09:24.299Z,21.70
2022-09-14T15:11:54.704Z,21.80
2022-09-14T15:14:27.208Z,21.80
2022-09-14T15:16:59.726Z,21.90
2022-09-14T15:19:28.479Z,21.90
2022-09-14T15:22:01.311Z,22.00
2022-09-14T15:24:30.378Z,22.10
2022-09-14T15:26:58.867Z,22.20
2022-09-14T15:29:26.943Z,22.20
2022-09-14T15:31:56.028Z,22.30
2022-09-14T15:34:24.383Z,22.40
2022-09-14T15:36:54.364Z,22.40
2022-09-14T15:39:26.108Z,22.50
2022-09-14T15:41:55.662Z,22.60
2022-09-14T15:44:24.241Z,22.60
2022-09-14T15:46:53.130Z,22.60
2022-09-14T15:49:22.883Z,22.60
2022-09-14T15:51:53.524Z,22.60
2022-09-14T15:54:24.283Z,22.60
2022-09-14T15:56:54.333Z,22.50
2022-09-14T15:59:23.383Z,22.40
2022-09-14T16:01:51.602Z,22.30
2022-09-14T16:04:20.515Z,22.20
2022-09-14T16:06:48.863Z,22.10
2022-09-14T16:09:18.339Z,22.00
2022-09-14T16:11:47.788Z,22.00
2022-09-14T16:14:15.822Z,21.90
2022-09-14T16:16:43.945Z,21.80
2022-09-14T16:19:14.777Z,21.70
2022-09-14T16:21:43.740Z,21.70
2022-09-14T16:24:14.630Z,21.70
2022-09-14T16:26:43.396Z,21.60
2022-09-14T16:29:14.753Z,21.60
2022-09-14T16:31:45.282Z,21.50
2022-09-14T16:34:15.543Z,21.50
2022-09-14T16:36:44.210Z,21.50
2022-09-14T16:39:14.036Z,21.40
2022-09-14T16:41:42.267Z,21.30
2022-09-14T16:44:14.922Z,21.30
2022-09-14T16:46:43.441Z,21.30
2022-09-14T16:49:11.705Z,21.30
2022-09-14T16:51:39.954Z,21.30
2022-09-14T16:54:09.022Z,21.30
2022-09-14T16:56:38.544Z,21.20
2022-09-14T16:59:07.533Z,21.20
2022-09-14T17:01:40.994Z,21.20
2022-09-14T17:04:12.060Z,21.20
2022-09-14T17:06:41.575Z,21.20
2022-09-14T17:09:12.395Z,21.10
2022-09-14T17:11:41.837Z,21.10
2022-09-14T17:14:14.150Z,21.10
2022-09-14T17:16:44.062Z,21.10
2022-09-14T17:19:13.015Z,21.00
2022-09-14T17:21:42.968Z,20.90
2022-09-14T17:24:12.303Z,20.90
2022-09-14T17:26:41.015Z,20.80
2022-09-14T17:29:09.332Z,20.80
2022-09-14T17:31:42.179Z,20.70
2022-09-14T17:34:13.401Z,20.70
2022-09-14T17:36:41.586Z,20.60
2022-09-14T17:39:12.421Z,20.60
2022-09-14T17:41:42.775Z,20.60
2022-09-14T17:44:12.892Z,20.50
2022-09-14T17:46:50.802Z,20.50
2022-09-14T17:49:24.223Z,20.40
2022-09-14T17:51:53.116Z,20.40
2022-09-14T17:54:21.578Z,20.30
2022-09-14T17:56:49.725Z,20.20
2022-09-14T17:59:20.486Z,20.20
2022-09-14T18:01:48.970Z,20.20
2022-09-14T18:04:17.866Z,20.10
2022-09-14T18:06:48.770Z,20.00
2022-09-14T18:09:22.278Z,19.90
2022-09-14T18:11:56.113Z,19.90
2022-09-14T18:14:24.578Z,19.90
2022-09-14T18:16:52.670Z,19.80
2022-09-14T18:19:21.093Z,19.80
2022-09-14T18:21:52.819Z,19.80
2022-09-14T18:24:21.944Z,19.70
2022-09-14T18:26:50.072Z,19.70
2022-09-14T18:29:21.203Z,19.70
2022-09-14T18:31:49.693Z,19.60
2022-09-14T18:34:18.710Z,19.60
2022-09-14T18:36:46.800Z,19.60
2022-09-14T18:39:17.404Z,19.60
2022-09-14T18:41:45.567Z,19.60
2022-09-14T18:44:13.600Z,19.60
2022-09-14T18:46:42.005Z,19.60
2022-09-14T18:49:10.574Z,19.50
2022-09-14T18:51:39.233Z,19.50
2022-09-14T18:54:08.799Z,19.40
2022-09-14T18:56:38.390Z,19.40
2022-09-14T18:59:09.120Z,19.40
2022-09-14T19:01:38.015Z,19.40
2022-09-14T19:04:10.820Z,19.40
2022-09-14T19:06:41.612Z,19.40
2022-09-14T19:09:10.505Z,19.30
2022-09-14T19:11:43.590Z,19.30
2022-09-14T19:14:15.465Z,19.30
2022-09-14T19:16:43.947Z,19.20
2022-09-14T19:19:15.172Z,19.20
2022-09-14T19:21:44.136Z,19.20
2022-09-14T19:24:13.860Z,19.20
2022-09-14T19:26:45.753Z,19.20
2022-09-14T19:29:15.369Z,19.10
2022-09-14T19:31:44.049Z,19.10
2022-09-14T19:34:13.255Z,19.10
2022-09-14T19:36:41.458Z,19.00
2022-09-14T19:39:10.103Z,19.00
2022-09-14T19:41:38.722Z,19.00
2022-09-14T19:44:08.738Z,19.00
2022-09-14T19:46:39.662Z,19.00
2022-09-14T19:49:09.260Z,18.90
2022-09-14T19:51:37.449Z,18.90
2022-09-14T19:54:05.859Z,18.90
2022-09-14T19:56:34.406Z,18.80
2022-09-14T19:59:04.574Z,18.80
2022-09-14T20:01:36.356Z,18.80
2022-09-14T20:04:09.069Z,18.80
2022-09-14T20:06:44.723Z,18.80
2022-09-14T20:09:15.889Z,18.70
2022-09-14T20:11:45.793Z,18.60
2022-09-14T20:14:16.202Z,18.60
2022-09-14T20:16:48.045Z,18.60
2022-09-14T20:19:18.677Z,18.60
2022-09-14T20:21:48.100Z,18.60
2022-09-14T20:24:19.291Z,18.60
2022-09-14T20:26:48.522Z,18.60
2022-09-14T20:29:17.579Z,18.60
2022-09-14T20:31:47.909Z,18.50
2022-09-14T20:34:18.312Z,18.50
2022-09-14T20:36:47.168Z,18.50
2022-09-14T20:39:15.303Z,18.50
2022-09-14T20:41:44.266Z,18.40
2022-09-14T20:44:13.950Z,18.40
2022-09-14T20:46:44.043Z,18.40
2022-09-14T20:49:17.317Z,18.40
2022-09-14T20:51:46.084Z,18.40
2022-09-14T20:54:16.118Z,18.30
2022-09-14T20:56:46.298Z,18.30
2022-09-14T20:59:17.519Z,18.30
2022-09-14T21:01:47.609Z,18.20
2022-09-14T21:04:20.934Z,18.20
2022-09-14T21:06:51.922Z,18.20
2022-09-14T21:09:21.046Z,18.20
2022-09-14T21:11:50.081Z,18.10
2022-09-14T21:14:20.101Z,18.10
2022-09-14T21:16:50.368Z,18.10
2022-09-14T21:19:23.613Z,18.10
2022-09-14T21:21:54.826Z,18.00
2022-09-14T21:24:24.540Z,18.00
2022-09-14T21:26:52.838Z,17.90
2022-09-14T21:29:24.121Z,18.00
2022-09-14T21:31:54.116Z,17.90
2022-09-14T21:34:25.333Z,17.90
2022-09-14T21:36:54.100Z,17.90
2022-09-14T21:39:24.049Z,17.80
2022-09-14T21:41:57.558Z,17.80
2022-09-14T21:44:29.928Z,17.80
2022-09-14T21:46:58.526Z,17.70
2022-09-14T21:49:28.595Z,17.70
2022-09-14T21:51:56.643Z,17.70
2022-09-14T21:54:24.841Z,17.70
2022-09-14T21:56:54.595Z,17.70
2022-09-14T21:59:24.223Z,17.70
2022-09-14T22:01:52.845Z,17.70
2022-09-14T22:04:22.989Z,17.70
2022-09-14T22:06:53.475Z,17.70
2022-09-14T22:09:23.339Z,17.60
2022-09-14T22:11:51.636Z,17.60
2022-09-14T22:14:21.750Z,17.50
2022-09-14T22:16:51.039Z,17.60
2022-09-14T22:19:21.049Z,17.50
2022-09-14T22:21:49.374Z,17.50
2022-09-14T22:24:21.563Z,17.50
2022-09-14T22:26:50.369Z,17.40
2022-09-14T22:29:19.420Z,17.40
2022-09-14T22:31:48.677Z,17.40
2022-09-14T22:34:17.702Z,17.40
2022-09-14T22:36:46.339Z,17.40
2022-09-14T22:39:15.241Z,17.30
2022-09-14T22:41:45.151Z,17.30
2022-09-14T22:44:13.725Z,17.30
2022-09-14T22:46:42.226Z,17.30
2022-09-14T22:49:10.506Z,17.30
2022-09-14T22:51:38.593Z,17.20
2022-09-14T22:54:07.267Z,17.20
2022-09-14T22:56:37.673Z,17.20
2022-09-14T22:59:09.156Z,17.20
2022-09-14T23:01:40.310Z,17.10
2022-09-14T23:04:10.877Z,17.10
2022-09-14T23:06:41.620Z,17.10
2022-09-14T23:09:11.905Z,17.10
2022-09-14T23:11:40.082Z,17.10
2022-09-14T23:14:09.697Z,17.00
2022-09-14T23:16:37.851Z,17.00
2022-09-14T23:19:07.777Z,17.00
2022-09-14T23:21:36.394Z,17.00
2022-09-14T23:24:06.695Z,17.00
2022-09-14T23:26:35.092Z,17.00
2022-09-14T23:29:06.762Z,17.00
2022-09-14T23:31:36.702Z,17.00
2022-09-14T23:34:06.612Z,17.00
2022-09-14T23:36:35.069Z,17.00
2022-09-14T23:39:03.818Z,17.00
2022-09-14T23:41:32.040Z,17.00
2022-09-14T23:44:00.861Z,17.10
2022-09-14T23:46:29.065Z,17.10
2022-09-14T23:48:58.736Z,17.10
2022-09-14T23:51:26.805Z,17.10
2022-09-14T23:53:54.840Z,17.10
2022-09-14T23:56:23.816Z,17.20
2022-09-14T23:58:52.165Z,17.20
